Time;durP1;ratioP1;P1;durP2;ratioP2;P2;SDS_P1;SDS_P2;PMS_P1;PMS_P2;Temp;Humidity;BMP_temperature;BMP_pressure;BME280_temperature;BME280_humidity;BME280_pressure;Samples;Min_cycle;Max_cycle;Signal;HPM_P1;HPM_P2
2022/06/15 00:05:34;;;;;;;0.20;0.00;;;26.50;99.90;;;;;;21133607;28;20295;-75
2022/06/15 00:15:38;;;;;;;0.20;0.00;;;26.20;99.90;;;;;;21132009;28;20281;-75
2022/06/15 00:25:43;;;;;;;0.20;0.00;;;25.80;99.90;;;;;;21134487;28;20200;-75
2022/06/15 00:35:57;;;;;;;0.20;0.00;;;25.60;99.90;;;;;;21130874;28;20277;-74
2022/06/15 00:46:05;;;;;;;0.20;0.10;;;25.20;99.90;;;;;;21132436;28;20213;-77
2022/06/15 00:56:10;;;;;;;0.20;0.10;;;25.20;99.90;;;;;;21130237;28;20223;-75
2022/06/15 01:06:23;;;;;;;0.20;0.10;;;25.10;99.90;;;;;;21131332;28;20254;-74
2022/06/15 01:16:34;;;;;;;0.20;0.00;;;25.40;99.90;;;;;;21128390;28;20235;-76
2022/06/15 01:27:10;;;;;;;0.20;0.00;;;25.60;99.90;;;;;;21129466;28;20191;-76
2022/06/15 01:37:22;;;;;;;0.20;0.10;;;27.20;99.90;;;;;;21129661;28;20226;-75
2022/06/15 01:47:31;;;;;;;0.20;0.10;;;27.30;99.90;;;;;;21128813;28;20251;-75
2022/06/15 01:57:38;;;;;;;0.20;0.00;;;27.20;99.90;;;;;;21130521;28;20284;-76
2022/06/15 02:07:48;;;;;;;0.20;0.10;;;26.10;99.90;;;;;;21129895;28;20235;-76
2022/06/15 02:17:57;;;;;;;0.20;0.00;;;26.30;99.90;;;;;;21131720;28;20300;-74
2022/06/15 02:28:02;;;;;;;0.20;0.00;;;26.60;99.90;;;;;;21144247;28;20212;-73
2022/06/15 02:38:07;;;;;;;0.20;0.10;;;26.70;99.90;;;;;;21197077;28;20292;-73
2022/06/15 02:48:11;;;;;;;0.20;0.00;;;26.90;99.90;;;;;;21224494;28;20248;-73
2022/06/15 02:58:23;;;;;;;0.20;0.00;;;27.20;99.90;;;;;;21225709;28;20287;-73
2022/06/15 03:08:27;;;;;;;0.20;0.00;;;27.00;99.90;;;;;;21224336;28;20235;-74
2022/06/15 03:18:33;;;;;;;0.20;0.10;;;28.20;99.90;;;;;;21224233;28;20294;-75
2022/06/15 03:28:37;;;;;;;0.20;0.10;;;27.40;99.90;;;;;;21223034;28;20199;-72
2022/06/15 03:38:42;;;;;;;0.20;0.00;;;28.10;99.90;;;;;;21220971;28;20246;-74
2022/06/15 03:48:46;;;;;;;0.20;0.00;;;27.80;99.90;;;;;;21221648;28;20246;-72
2022/06/15 03:58:51;;;;;;;0.20;0.00;;;27.70;99.90;;;;;;21218856;28;20268;-73
2022/06/15 04:08:55;;;;;;;0.20;0.08;;;27.50;99.90;;;;;;21200752;28;20255;-74
2022/06/15 04:19:02;;;;;;;0.20;0.00;;;27.30;99.90;;;;;;21218775;28;20293;-74
2022/06/15 04:29:07;;;;;;;0.20;0.00;;;25.80;99.90;;;;;;21218897;28;20217;-73
2022/06/15 04:39:14;;;;;;;0.20;0.05;;;25.00;99.90;;;;;;21214771;28;20275;-72
2022/06/15 04:49:18;;;;;;;0.20;0.00;;;26.20;99.90;;;;;;21216437;28;20222;-74
2022/06/15 04:59:23;;;;;;;0.20;0.00;;;26.90;99.90;;;;;;21213450;28;20219;-73
2022/06/15 05:09:27;;;;;;;0.20;0.00;;;27.30;99.90;;;;;;21212618;28;20230;-73
2022/06/15 05:19:33;;;;;;;0.20;0.10;;;27.30;99.90;;;;;;21209687;28;20312;-73
2022/06/15 05:29:38;;;;;;;0.20;0.08;;;27.10;99.90;;;;;;21207633;28;20220;-73
2022/06/15 05:39:43;;;;;;;0.20;0.00;;;26.60;99.90;;;;;;21209504;28;20282;-74
2022/06/15 05:49:47;;;;;;;0.20;0.00;;;26.30;99.90;;;;;;21211658;28;20279;-74
2022/06/15 05:59:55;;;;;;;0.20;0.00;;;26.40;99.90;;;;;;21226191;28;20247;-75
2022/06/15 06:09:59;;;;;;;0.20;0.00;;;26.60;99.90;;;;;;21223139;28;20238;-73
2022/06/15 06:20:04;;;;;;;0.20;0.00;;;26.60;99.90;;;;;;21222852;28;20248;-75
2022/06/15 06:30:13;;;;;;;0.20;0.00;;;26.30;99.90;;;;;;21223922;28;20206;-73
2022/06/15 06:40:18;;;;;;;0.20;0.00;;;26.20;99.90;;;;;;21221934;28;20782;-74
2022/06/15 06:50:22;;;;;;;0.20;0.00;;;26.20;99.90;;;;;;21220522;28;20199;-74
2022/06/15 07:00:29;;;;;;;0.20;0.00;;;26.50;99.90;;;;;;21217322;28;20247;-73
2022/06/15 07:10:33;;;;;;;0.20;0.00;;;27.20;99.90;;;;;;21217384;28;20208;-68
2022/06/15 07:20:38;;;;;;;0.20;0.10;;;28.30;99.90;;;;;;21155386;28;20240;-74
2022/06/15 07:30:42;;;;;;;0.20;0.00;;;29.60;99.90;;;;;;21181373;28;20271;-72
2022/06/15 07:40:47;;;;;;;0.20;0.00;;;31.00;99.90;;;;;;21137984;28;20283;-71
2022/06/15 07:50:51;;;;;;;0.20;0.00;;;28.90;99.90;;;;;;21193610;28;20188;-73
2022/06/15 08:00:56;;;;;;;0.20;0.00;;;27.80;99.90;;;;;;21215099;28;20307;-72
2022/06/15 08:11:00;;;;;;;0.20;0.00;;;27.30;99.90;;;;;;21215804;28;20254;-69
2022/06/15 08:21:09;;;;;;;0.20;0.00;;;26.40;99.90;;;;;;21213944;28;20243;-72
2022/06/15 08:31:13;;;;;;;0.20;0.00;;;26.20;99.90;;;;;;21212390;28;20226;-70
2022/06/15 08:41:34;;;;;;;0.20;0.00;;;26.80;99.90;;;;;;21128750;28;20243;-70
2022/06/15 08:51:40;;;;;;;0.20;0.00;;;27.00;99.90;;;;;;21125996;28;20211;-70
2022/06/15 09:01:51;;;;;;;0.20;0.00;;;27.00;99.90;;;;;;21127346;28;20259;-70
2022/06/15 09:22:37;;;;;;;0.20;0.00;;;26.60;99.90;;;;;;21177045;28;20240;-70
2022/06/15 09:32:43;;;;;;;0.20;0.00;;;26.90;99.90;;;;;;21207407;28;20250;-68
2022/06/15 09:42:54;;;;;;;0.20;0.00;;;27.10;99.90;;;;;;21177830;28;20282;-71
2022/06/15 09:53:18;;;;;;;0.20;0.10;;;27.30;99.90;;;;;;21225676;28;20206;-70
2022/06/15 10:03:27;;;;;;;0.20;0.00;;;27.50;99.90;;;;;;21225155;28;20234;-69
2022/06/15 10:13:36;;;;;;;0.20;0.00;;;27.40;99.90;;;;;;21224035;28;20199;-69
2022/06/15 10:23:53;;;;;;;0.20;0.10;;;28.00;99.90;;;;;;21225335;28;20234;-70
2022/06/15 10:33:57;;;;;;;0.20;0.00;;;28.10;99.90;;;;;;21203692;28;20207;-71
2022/06/15 10:44:02;;;;;;;0.20;0.00;;;28.10;99.90;;;;;;21137842;28;20283;-70
2022/06/15 10:54:20;;;;;;;0.20;0.00;;;28.40;99.90;;;;;;21138060;28;20203;-69
2022/06/15 11:04:28;;;;;;;0.20;0.00;;;28.90;99.90;;;;;;21210947;28;20255;-72
2022/06/15 11:14:43;;;;;;;0.20;0.00;;;29.30;99.90;;;;;;21219212;28;20187;-71
2022/06/15 11:24:53;;;;;;;0.20;0.00;;;30.00;99.90;;;;;;21216083;28;20307;-73
2022/06/15 11:35:03;;;;;;;0.20;0.00;;;30.70;99.90;;;;;;21187459;28;20187;-73
2022/06/15 11:45:14;;;;;;;0.20;0.00;;;30.90;99.90;;;;;;21132508;28;20236;-71
2022/06/15 11:55:28;;;;;;;0.20;0.00;;;31.00;99.90;;;;;;21198537;28;20204;-72
2022/06/15 12:05:43;;;;;;;0.20;0.00;;;31.20;99.90;;;;;;21216553;27;20235;-74
2022/06/15 12:15:53;;;;;;;0.20;0.00;;;31.20;99.90;;;;;;21210598;28;20227;-73
2022/06/15 12:26:04;;;;;;;0.20;0.00;;;32.30;99.90;;;;;;21162654;28;20291;-71
2022/06/15 12:36:13;;;;;;;0.20;0.00;;;32.70;99.90;;;;;;21127884;28;20255;-72
2022/06/15 12:46:19;;;;;;;0.20;0.00;;;33.00;99.90;;;;;;21125010;28;20219;-74
2022/06/15 12:56:38;;;;;;;0.20;0.00;;;32.80;99.90;;;;;;21125674;28;20199;-73
2022/06/15 13:06:44;;;;;;;0.20;0.00;;;33.00;99.90;;;;;;21124410;28;20304;-74
2022/06/15 13:17:05;;;;;;;0.20;0.00;;;33.70;99.90;;;;;;21126939;28;20212;-73
2022/06/15 13:27:22;;;;;;;2.08;1.10;;;34.50;99.90;;;;;;21126388;28;20219;-72
2022/06/15 13:37:30;;;;;;;0.20;0.10;;;32.20;99.90;;;;;;21172153;28;20203;-72
2022/06/15 13:47:51;;;;;;;0.20;0.00;;;32.20;99.90;;;;;;21205184;28;20283;-72
2022/06/15 13:58:26;;;;;;;0.20;0.00;;;33.10;99.90;;;;;;21205569;28;20218;-77
2022/06/15 14:08:49;;;;;;;0.20;0.00;;;33.30;99.90;;;;;;21210525;28;20250;-73
2022/06/15 14:18:56;;;;;;;0.20;0.00;;;32.90;99.90;;;;;;21222128;28;20227;-71
2022/06/15 14:29:03;;;;;;;0.20;0.00;;;32.90;99.90;;;;;;21219833;28;20194;-73
2022/06/15 14:39:17;;;;;;;0.20;0.00;;;32.20;99.90;;;;;;21155391;28;20287;-70
2022/06/15 14:49:28;;;;;;;0.20;0.00;;;32.10;99.90;;;;;;21135078;28;20226;-71
2022/06/15 14:59:44;;;;;;;0.20;0.00;;;31.80;99.90;;;;;;21136201;28;20239;-72
2022/06/15 15:09:50;;;;;;;0.20;0.00;;;31.80;99.90;;;;;;21133059;28;20250;-71
2022/06/15 15:19:55;;;;;;;0.20;0.03;;;31.60;99.90;;;;;;21131870;28;20228;-73
2022/06/15 15:40:30;;;;;;;0.20;0.00;;;28.80;99.90;;;;;;21129167;28;20296;-72
2022/06/15 15:50:35;;;;;;;0.20;0.00;;;28.30;99.90;;;;;;21130684;28;20255;-73
2022/06/15 16:00:40;;;;;;;0.20;0.00;;;27.90;99.90;;;;;;21129162;28;20504;-71
2022/06/15 16:10:48;;;;;;;0.20;0.00;;;27.60;99.90;;;;;;21130865;28;20259;-72
2022/06/15 16:20:52;;;;;;;0.20;0.00;;;27.70;99.90;;;;;;21127787;28;20283;-73
2022/06/15 16:31:00;;;;;;;0.20;0.00;;;27.70;99.90;;;;;;21129306;28;20256;-72
2022/06/15 16:41:10;;;;;;;0.20;0.00;;;27.50;99.90;;;;;;21129696;28;20245;-75
2022/06/15 16:51:18;;;;;;;0.20;0.00;;;27.80;99.90;;;;;;21131648;28;20258;-72
2022/06/15 17:01:22;;;;;;;0.20;0.10;;;27.50;99.90;;;;;;21168793;28;20251;-72
2022/06/15 17:11:27;;;;;;;0.20;0.00;;;27.00;99.90;;;;;;21218660;28;20184;-72
2022/06/15 17:21:33;;;;;;;0.20;0.00;;;26.80;99.90;;;;;;21218093;28;20223;-76
2022/06/15 17:31:41;;;;;;;0.20;0.00;;;27.20;99.90;;;;;;21214578;28;20211;-73
2022/06/15 17:41:50;;;;;;;0.20;0.00;;;26.80;99.90;;;;;;21129460;28;20234;-75
2022/06/15 17:51:56;;;;;;;0.20;0.00;;;26.90;99.90;;;;;;21145361;28;20192;-73
2022/06/15 18:02:05;;;;;;;0.20;0.10;;;26.90;99.90;;;;;;21149066;28;20238;-76
2022/06/15 18:12:12;;;;;;;0.20;0.00;;;26.70;99.90;;;;;;21147141;28;20218;-69
2022/06/15 18:22:19;;;;;;;0.20;0.00;;;26.40;99.90;;;;;;21147415;28;20287;-75
2022/06/15 18:32:29;;;;;;;0.20;0.00;;;26.10;99.90;;;;;;21144578;28;20176;-75
2022/06/15 18:42:33;;;;;;;0.20;0.00;;;26.10;99.90;;;;;;21143875;28;20246;-75
2022/06/15 18:52:40;;;;;;;0.20;0.00;;;26.10;99.90;;;;;;21143895;28;20208;-75
2022/06/15 19:02:48;;;;;;;0.20;0.00;;;26.00;99.90;;;;;;21140613;28;20243;-76
2022/06/15 19:12:55;;;;;;;0.20;0.00;;;25.80;99.90;;;;;;21140250;28;20204;-74
2022/06/15 19:23:02;;;;;;;0.20;0.00;;;25.80;99.90;;;;;;21140913;28;20340;-74
2022/06/15 19:33:09;;;;;;;0.20;0.00;;;25.80;99.90;;;;;;21186368;28;20574;-74
2022/06/15 19:43:16;;;;;;;0.20;0.00;;;25.30;99.90;;;;;;21141888;28;20299;-74
2022/06/15 19:53:23;;;;;;;0.20;0.00;;;25.20;99.90;;;;;;21141166;28;20256;-73
2022/06/15 20:03:26;;;;;;;0.20;0.10;;;25.30;99.90;;;;;;21140205;28;20236;-71
2022/06/15 20:13:32;;;;;;;0.20;0.10;;;25.40;99.90;;;;;;21136710;28;20192;-73
2022/06/15 20:23:40;;;;;;;0.20;0.00;;;25.40;99.90;;;;;;21139528;28;20255;-72
2022/06/15 20:33:46;;;;;;;0.20;0.10;;;25.40;99.90;;;;;;21156172;28;20192;-72
2022/06/15 20:43:53;;;;;;;0.20;0.00;;;25.20;99.90;;;;;;21215868;28;20242;-74
2022/06/15 20:53:59;;;;;;;0.20;0.00;;;25.00;99.90;;;;;;21224231;28;20195;-75
2022/06/15 21:04:08;;;;;;;0.20;0.00;;;24.90;99.90;;;;;;21219478;28;20307;-74
2022/06/15 21:24:36;;;;;;;0.20;0.00;;;24.80;99.90;;;;;;21230231;28;20234;-72
2022/06/15 21:34:41;;;;;;;0.20;0.00;;;24.80;99.90;;;;;;21216108;28;20256;-74
2022/06/15 21:44:48;;;;;;;0.20;0.00;;;24.30;99.90;;;;;;21190238;28;20246;-73
2022/06/15 21:54:53;;;;;;;0.20;0.00;;;24.30;99.90;;;;;;21197169;28;20204;-73
2022/06/15 22:04:57;;;;;;;0.20;0.00;;;24.50;99.90;;;;;;21191027;27;20251;-74
2022/06/15 22:15:02;;;;;;;0.20;0.00;;;24.20;99.90;;;;;;21192669;28;20231;-73
2022/06/15 22:25:08;;;;;;;0.20;0.10;;;23.70;99.90;;;;;;21194369;28;20642;-73
2022/06/15 22:35:18;;;;;;;0.20;0.00;;;23.70;99.90;;;;;;21187769;28;20206;-72
2022/06/15 22:45:23;;;;;;;0.20;0.00;;;23.50;99.90;;;;;;21202988;28;20219;-73
2022/06/15 22:55:29;;;;;;;0.20;0.00;;;23.50;99.90;;;;;;21156204;28;20196;-74
2022/06/15 23:05:36;;;;;;;0.20;0.00;;;23.40;99.90;;;;;;21188005;28;20227;-73
2022/06/15 23:15:41;;;;;;;0.20;0.00;;;23.20;99.90;;;;;;21185415;28;20229;-74
2022/06/15 23:25:45;;;;;;;0.20;0.00;;;23.00;99.90;;;;;;21178745;28;20216;-73
2022/06/15 23:35:50;;;;;;;0.20;0.00;;;22.60;99.90;;;;;;21183022;28;20188;-74
2022/06/15 23:56:17;;;;;;;0.20;0.00;;;22.60;99.90;;;;;;21183662;28;20258;-75
